createdAt,value
2022-08-23T00:01:44.863Z,96979.19
2022-08-23T00:05:43.822Z,96967.81
2022-08-23T00:09:41.125Z,96988.97
2022-08-23T00:13:47.444Z,96973.09
2022-08-23T00:17:45.429Z,96982.72
2022-08-23T00:21:44.157Z,96998.66
2022-08-23T00:25:42.613Z,96990.59
2022-08-23T00:29:47.453Z,96987.78
2022-08-23T00:33:44.766Z,96958.22
2022-08-23T00:37:41.977Z,96979.06
2022-08-23T00:41:40.132Z,96986.50
2022-08-23T00:46:09.619Z,96991.41
2022-08-23T00:50:23.838Z,96989.97
2022-08-23T00:54:25.267Z,96992.09
2022-08-23T00:58:23.201Z,96976.81
2022-08-23T01:02:20.400Z,96994.69
2022-08-23T01:06:38.741Z,96989.94
2022-08-23T01:10:57.098Z,96943.88
2022-08-23T01:15:17.579Z,96951.44
2022-08-23T01:19:27.461Z,96983.00
2022-08-23T01:23:56.508Z,96963.41
2022-08-23T01:27:53.750Z,96988.53
2022-08-23T01:31:51.037Z,96974.53
2022-08-23T01:35:55.341Z,96986.19
2022-08-23T01:39:53.400Z,96997.47
2022-08-23T01:43:50.527Z,97002.72
2022-08-23T01:47:49.242Z,96997.63
2022-08-23T01:51:47.278Z,96986.06
2022-08-23T01:55:44.465Z,96975.88
2022-08-23T01:59:43.918Z,96989.78
2022-08-23T02:03:41.382Z,96992.03
2022-08-23T02:07:38.789Z,96993.47
2022-08-23T02:11:42.625Z,97006.22
2022-08-23T02:15:47.054Z,96990.00
2022-08-23T02:19:45.317Z,97010.78
2022-08-23T02:23:42.748Z,96982.44
2022-08-23T02:27:42.967Z,97000.88
2022-08-23T02:31:44.497Z,96997.09
2022-08-23T02:35:41.937Z,96996.44
2022-08-23T02:39:40.143Z,97010.28
2022-08-23T02:43:40.964Z,97012.41
2022-08-23T02:47:39.252Z,97000.28
2022-08-23T02:51:45.737Z,97002.19
2022-08-23T02:55:47.796Z,97018.91
2022-08-23T02:59:44.908Z,96995.66
2022-08-23T03:03:43.075Z,97001.75
2022-08-23T03:07:40.889Z,97007.41
2022-08-23T03:11:45.055Z,97011.63
2022-08-23T03:15:43.458Z,97019.69
2022-08-23T03:19:40.693Z,97014.19
2022-08-23T03:23:40.575Z,96997.25
2022-08-23T03:27:38.452Z,96997.16
2022-08-23T03:31:42.869Z,96999.81
2022-08-23T03:35:42.950Z,97001.38
2022-08-23T03:39:42.102Z,97000.16
2022-08-23T03:43:39.992Z,97009.75
2022-08-23T03:47:38.139Z,97011.19
2022-08-23T03:51:35.823Z,97013.66
2022-08-23T03:55:33.655Z,97035.59
2022-08-23T03:59:42.797Z,97033.50
2022-08-23T04:03:41.545Z,97028.50
2022-08-23T04:07:40.263Z,97041.88
2022-08-23T04:11:38.330Z,97045.38
2022-08-23T04:15:37.364Z,97043.09
2022-08-23T04:19:36.235Z,97050.19
2022-08-23T04:23:36.803Z,97050.97
2022-08-23T04:27:33.895Z,97044.06
2022-08-23T04:31:34.553Z,97043.56
2022-08-23T04:35:35.325Z,97037.03
2022-08-23T04:39:53.929Z,97057.16
2022-08-23T04:43:51.813Z,97040.63
2022-08-23T04:47:48.910Z,97047.75
2022-08-23T04:51:52.791Z,97060.56
2022-08-23T04:55:52.672Z,97047.28
2022-08-23T04:59:50.183Z,97062.72
2022-08-23T05:03:47.406Z,97061.81
2022-08-23T05:07:44.630Z,97082.88
2022-08-23T05:11:41.739Z,97080.53
2022-08-23T05:15:39.154Z,97083.63
2022-08-23T05:19:37.505Z,97068.00
2022-08-23T05:23:41.702Z,97092.88
2022-08-23T05:27:45.765Z,97108.66
2022-08-23T05:31:43.064Z,97093.72
2022-08-23T05:35:45.554Z,97076.09
2022-08-23T05:39:43.231Z,97093.91
2022-08-23T05:43:41.033Z,97084.19
2022-08-23T05:47:38.157Z,97105.28
2022-08-23T05:51:51.914Z,97112.00
2022-08-23T05:55:50.927Z,97087.91
2022-08-23T05:59:50.022Z,97100.66
2022-08-23T06:03:47.832Z,97114.78
2022-08-23T06:07:45.520Z,97124.84
2022-08-23T06:11:48.249Z,97120.63
2022-08-23T06:15:46.265Z,97122.53
2022-08-23T06:19:43.401Z,97114.75
2022-08-23T06:23:56.685Z,97121.34
2022-08-23T06:27:53.795Z,97129.78
2022-08-23T06:31:52.979Z,97128.03
2022-08-23T06:36:07.199Z,97125.56
2022-08-23T06:40:27.777Z,97103.56
2022-08-23T06:44:49.236Z,97115.47
2022-08-23T06:49:00.799Z,97123.38
2022-08-23T06:52:58.072Z,97121.06
2022-08-23T06:57:13.607Z,97118.22
2022-08-23T07:01:45.127Z,97132.03
2022-08-23T07:05:49.876Z,97110.34
2022-08-23T07:09:57.053Z,97138.78
2022-08-23T07:13:55.359Z,97124.28
2022-08-23T07:17:52.487Z,97129.13
2022-08-23T07:21:50.746Z,97126.97
2022-08-23T07:25:47.810Z,97134.72
2022-08-23T07:29:48.509Z,97137.56
2022-08-23T07:33:46.707Z,97137.53
2022-08-23T07:37:47.952Z,97129.94
2022-08-23T07:41:46.992Z,97138.44
2022-08-23T07:45:49.210Z,97115.38
2022-08-23T07:49:47.133Z,97125.38
2022-08-23T07:53:46.305Z,97121.50
2022-08-23T07:57:45.515Z,97132.97
2022-08-23T08:02:06.774Z,97147.09
2022-08-23T08:06:30.754Z,97147.75
2022-08-23T08:10:32.424Z,97141.91
2022-08-23T08:14:29.624Z,97126.84
2022-08-23T08:18:29.182Z,97135.28
2022-08-23T08:22:48.553Z,97147.38
2022-08-23T08:27:02.779Z,97160.19
2022-08-23T08:31:00.030Z,97129.28
2022-08-23T08:34:57.118Z,97145.63
2022-08-23T08:38:58.733Z,97122.47
2022-08-23T08:43:28.725Z,97137.91
2022-08-23T08:47:57.062Z,97143.47
2022-08-23T08:52:10.447Z,97138.72
2022-08-23T08:56:25.195Z,97105.13
2022-08-23T09:00:47.169Z,97120.41
2022-08-23T09:04:46.555Z,97127.78
2022-08-23T09:08:55.445Z,97136.25
2022-08-23T09:13:32.564Z,97117.16
2022-08-23T09:18:07.507Z,97131.97
2022-08-23T09:22:24.194Z,97113.00
2022-08-23T09:26:30.395Z,97116.69
2022-08-23T09:30:49.503Z,97118.03
2022-08-23T09:34:47.049Z,97091.94
2022-08-23T09:39:07.773Z,97107.06
2022-08-23T09:43:20.578Z,97101.78
2022-08-23T09:47:17.707Z,97096.59
2022-08-23T09:51:36.056Z,97111.16
2022-08-23T09:55:42.963Z,97102.31
2022-08-23T09:59:47.658Z,97111.69
2022-08-23T10:04:13.948Z,97094.16
2022-08-23T10:08:28.750Z,97100.19
2022-08-23T10:12:29.120Z,97103.78
2022-08-23T10:16:48.573Z,97075.09
2022-08-23T10:21:03.145Z,97071.66
2022-08-23T10:25:30.931Z,97093.00
2022-08-23T10:29:42.433Z,97099.22
2022-08-23T10:34:30.454Z,97084.06
2022-08-23T10:38:46.987Z,97092.38
2022-08-23T10:43:02.294Z,97081.16
2022-08-23T10:47:30.755Z,97080.59
2022-08-23T10:51:33.141Z,97085.66
2022-08-23T10:55:44.478Z,97082.03
2022-08-23T10:59:45.672Z,97079.69
2022-08-23T11:04:04.811Z,97078.41
2022-08-23T11:08:47.455Z,97076.78
2022-08-23T11:13:19.504Z,97076.25
2022-08-23T11:17:29.904Z,97065.66
2022-08-23T11:21:31.715Z,97074.41
2022-08-23T11:25:33.483Z,97072.78
2022-08-23T11:29:32.854Z,97059.38
2022-08-23T11:34:19.720Z,97062.38
2022-08-23T11:38:48.716Z,97057.25
2022-08-23T11:42:53.184Z,97059.50
2022-08-23T11:46:50.747Z,97061.63
2022-08-23T11:50:59.893Z,97055.69
2022-08-23T11:55:42.402Z,97054.78
2022-08-23T12:00:17.576Z,97042.56
2022-08-23T12:04:45.843Z,97051.38
2022-08-23T12:09:02.180Z,97056.22
2022-08-23T12:13:18.137Z,97044.72
2022-08-23T12:17:28.705Z,97050.84
2022-08-23T12:21:52.219Z,97053.31
2022-08-23T12:26:09.559Z,97052.91
2022-08-23T12:30:10.951Z,97047.59
2022-08-23T12:34:08.025Z,97041.22
2022-08-23T12:38:21.519Z,97049.31
2022-08-23T12:42:37.551Z,97049.59
2022-08-23T12:46:44.488Z,97041.06
2022-08-23T12:50:45.359Z,97037.09
2022-08-23T12:54:50.301Z,97041.69
2022-08-23T12:58:54.600Z,97040.22
2022-08-23T13:03:05.962Z,97036.47
2022-08-23T13:07:12.249Z,97034.13
2022-08-23T13:11:14.927Z,97033.84
2022-08-23T13:15:12.163Z,97028.59
2022-08-23T13:19:30.822Z,97034.69
2022-08-23T13:23:30.324Z,97019.72
2022-08-23T13:27:36.542Z,97017.22
2022-08-23T13:32:05.848Z,97018.16
2022-08-23T13:36:15.976Z,97016.72
2022-08-23T13:40:25.474Z,97035.69
2022-08-23T13:44:23.310Z,97036.22
2022-08-23T13:48:32.108Z,97019.66
2022-08-23T13:56:56.544Z,96995.84
2022-08-23T14:00:55.581Z,97011.31
2022-08-23T14:04:53.258Z,96994.34
2022-08-23T14:08:52.835Z,97010.25
2022-08-23T14:12:54.730Z,97008.94
2022-08-23T14:16:54.505Z,97012.81
2022-08-23T14:20:51.692Z,97009.75
2022-08-23T14:24:48.915Z,97023.22
2022-08-23T14:28:47.005Z,97022.63
2022-08-23T14:32:48.667Z,97021.00
2022-08-23T14:41:17.069Z,97000.81
2022-08-23T14:45:18.082Z,96997.25
2022-08-23T14:49:15.649Z,97011.22
2022-08-23T14:53:17.900Z,97013.28
2022-08-23T14:57:15.017Z,96997.00
2022-08-23T15:01:13.082Z,97004.94
2022-08-23T15:05:12.084Z,97000.09
2022-08-23T15:09:09.158Z,96991.53
2022-08-23T15:13:32.401Z,97009.63
2022-08-23T15:17:30.336Z,97013.59
2022-08-23T15:21:28.643Z,97008.91
2022-08-23T15:25:29.837Z,97002.97
2022-08-23T15:29:27.946Z,97008.13
2022-08-23T15:33:27.090Z,97005.44
2022-08-23T15:37:27.882Z,96987.28
2022-08-23T15:41:24.953Z,96994.69
2022-08-23T15:45:22.614Z,97014.41
2022-08-23T15:49:19.906Z,97018.44
2022-08-23T15:53:20.783Z,97001.03
2022-08-23T15:57:24.964Z,97004.75
2022-08-23T16:01:25.789Z,97003.81
2022-08-23T16:05:23.150Z,97010.84
2022-08-23T16:09:25.722Z,97017.41
2022-08-23T16:13:27.023Z,97002.41
2022-08-23T16:17:25.672Z,96997.91
2022-08-23T16:21:26.418Z,96996.34
2022-08-23T16:25:24.792Z,96978.56
2022-08-23T16:29:22.843Z,97012.44
2022-08-23T16:33:19.856Z,97018.34
2022-08-23T16:37:16.941Z,97012.09
2022-08-23T16:41:14.450Z,97004.22
2022-08-23T16:45:12.217Z,97012.50
2022-08-23T16:49:16.412Z,97024.53
2022-08-23T16:53:13.564Z,97023.41
2022-08-23T16:57:10.606Z,97033.50
2022-08-23T17:01:14.070Z,97037.88
2022-08-23T17:05:15.567Z,97030.56
2022-08-23T17:09:13.662Z,97041.63
2022-08-23T17:13:14.021Z,97051.06
2022-08-23T17:17:12.907Z,97051.09
2022-08-23T17:21:10.128Z,97050.59
2022-08-23T17:25:09.820Z,97031.22
2022-08-23T17:29:07.493Z,97051.66
2022-08-23T17:33:05.360Z,97070.66
2022-08-23T17:37:02.685Z,97069.38
2022-08-23T17:41:00.275Z,97046.81
2022-08-23T17:44:57.835Z,97077.13
2022-08-23T17:48:54.939Z,97080.28
2022-08-23T17:52:52.030Z,97087.28
2022-08-23T17:56:50.659Z,97095.31
2022-08-23T18:00:48.027Z,97099.31
2022-08-23T18:04:45.254Z,97107.38
2022-08-23T18:08:42.326Z,97103.25
2022-08-23T18:12:40.865Z,97103.25
2022-08-23T18:16:38.705Z,97089.63
2022-08-23T18:20:37.135Z,97120.00
2022-08-23T18:24:34.344Z,97125.31
2022-08-23T18:28:31.407Z,97122.59
2022-08-23T18:32:28.857Z,97100.00
2022-08-23T18:36:26.564Z,97112.16
2022-08-23T18:40:25.748Z,97147.03
2022-08-23T18:44:23.219Z,97144.41
2022-08-23T18:48:22.269Z,97158.31
2022-08-23T18:52:19.392Z,97168.91
2022-08-23T18:56:16.623Z,97153.19
2022-08-23T19:00:14.004Z,97159.34
2022-08-23T19:04:13.840Z,97173.06
2022-08-23T19:08:13.438Z,97185.22
2022-08-23T19:12:10.632Z,97167.16
2022-08-23T19:16:13.387Z,97186.53
2022-08-23T19:20:11.657Z,97179.19
2022-08-23T19:24:08.724Z,97169.13
2022-08-23T19:28:06.247Z,97197.63
2022-08-23T19:32:04.367Z,97210.59
2022-08-23T19:36:02.846Z,97202.16
2022-08-23T19:40:00.176Z,97211.91
2022-08-23T19:43:58.464Z,97224.88
2022-08-23T19:47:59.650Z,97226.25
2022-08-23T19:51:57.356Z,97231.81
2022-08-23T19:55:54.465Z,97228.03
2022-08-23T19:59:51.602Z,97222.31
2022-08-23T20:03:48.723Z,97226.81
2022-08-23T20:07:46.648Z,97247.28
2022-08-23T20:11:43.989Z,97233.00
2022-08-23T20:15:41.071Z,97263.34
2022-08-23T20:19:38.626Z,97257.31
2022-08-23T20:23:54.689Z,97234.66
2022-08-23T20:27:52.518Z,97229.63
2022-08-23T20:31:52.061Z,97261.78
2022-08-23T20:35:49.170Z,97249.03
2022-08-23T20:39:46.497Z,97262.44
2022-08-23T20:43:48.776Z,97259.75
2022-08-23T20:47:45.827Z,97239.81
2022-08-23T20:51:42.987Z,97263.69
2022-08-23T20:55:40.226Z,97277.75
2022-08-23T20:59:40.956Z,97280.41
2022-08-23T21:03:40.988Z,97271.38
2022-08-23T21:07:38.020Z,97270.34
2022-08-23T21:11:35.137Z,97277.38
2022-08-23T21:15:32.262Z,97292.69
2022-08-23T21:19:30.200Z,97273.44
2022-08-23T21:23:27.378Z,97283.34
2022-08-23T21:27:24.398Z,97273.69
2022-08-23T21:31:24.760Z,97289.28
2022-08-23T21:35:24.059Z,97277.50
2022-08-23T21:39:21.230Z,97267.88
2022-08-23T21:43:18.225Z,97276.44
2022-08-23T21:47:15.947Z,97289.34
2022-08-23T21:51:13.099Z,97293.38
2022-08-23T21:55:10.655Z,97278.13
2022-08-23T21:59:13.484Z,97284.50
2022-08-23T22:03:12.818Z,97277.56
2022-08-23T22:07:09.950Z,97305.47
2022-08-23T22:11:07.509Z,97302.53
2022-08-23T22:15:06.490Z,97306.63
2022-08-23T22:19:05.208Z,97307.09
2022-08-23T22:23:02.663Z,97295.59
2022-08-23T22:26:59.899Z,97272.25
2022-08-23T22:31:00.803Z,97301.47
2022-08-23T22:34:58.959Z,97283.53
2022-08-23T22:38:56.794Z,97277.59
2022-08-23T22:42:53.807Z,97297.44
2022-08-23T22:46:51.438Z,97293.69
2022-08-23T22:50:49.727Z,97302.31
2022-08-23T22:54:47.193Z,97292.63
2022-08-23T22:58:45.127Z,97285.66
2022-08-23T23:02:44.953Z,97298.00
2022-08-23T23:06:42.661Z,97279.75
2022-08-23T23:10:39.652Z,97280.28
2022-08-23T23:14:36.691Z,97283.53
2022-08-23T23:18:34.911Z,97265.81
2022-08-23T23:22:31.899Z,97283.00
2022-08-23T23:26:29.641Z,97290.50
2022-08-23T23:30:26.720Z,97279.22
2022-08-23T23:34:26.016Z,97287.97
2022-08-23T23:38:23.031Z,97280.13
2022-08-23T23:42:20.023Z,97279.09
2022-08-23T23:46:20.182Z,97251.19
2022-08-23T23:50:17.649Z,97274.25
2022-08-23T23:54:14.766Z,97272.38
2022-08-23T23:58:12.085Z,97262.97
